Time;durP1;ratioP1;P1;durP2;ratioP2;P2;SDS_P1;SDS_P2;PMS_P1;PMS_P2;Temp;Humidity;BMP_temperature;BMP_pressure;BME280_temperature;BME280_humidity;BME280_pressure;Samples;Min_cycle;Max_cycle;Signal;HPM_P1;HPM_P2
2022/05/16 00:01:04;;;;;;;11.38;7.15;;;;;;;10.80;73.54;93841.84;5112067;28;20051;-48
2022/05/16 00:03:30;;;;;;;11.25;8.57;;;;;;;10.47;74.44;93837.91;5113074;28;20472;-52
2022/05/16 00:05:55;;;;;;;9.45;7.70;;;;;;;10.52;74.20;93823.97;5112902;28;20023;-49
2022/05/16 00:08:21;;;;;;;9.80;7.97;;;;;;;10.41;74.66;93827.00;5112627;28;20317;-51
2022/05/16 00:10:46;;;;;;;11.98;7.47;;;;;;;10.42;74.74;93839.50;5112905;28;20035;-49
2022/05/16 00:13:12;;;;;;;8.10;6.65;;;;;;;10.40;74.30;93833.03;5112883;28;20112;-52
2022/05/16 00:15:37;;;;;;;7.65;6.70;;;;;;;10.47;74.26;93830.34;5112486;28;20477;-49
2022/05/16 00:18:04;;;;;;;8.00;6.95;;;;;;;10.61;73.34;93831.03;5112440;28;20023;-49
2022/05/16 00:20:29;;;;;;;8.30;7.32;;;;;;;10.43;73.70;93818.16;5108923;28;20093;-49
2022/05/16 00:22:54;;;;;;;8.63;6.57;;;;;;;10.24;73.39;93784.53;5092167;28;20032;-50
2022/05/16 00:25:20;;;;;;;8.18;6.97;;;;;;;10.31;75.25;93830.78;5092297;28;20078;-49
2022/05/16 00:27:45;;;;;;;11.13;7.32;;;;;;;10.39;74.07;93820.53;5091893;28;20020;-49
2022/05/16 00:30:14;;;;;;;7.78;6.70;;;;;;;10.48;73.72;93818.03;5092108;28;20023;-50
2022/05/16 00:32:40;;;;;;;7.75;6.03;;;;;;;10.13;73.42;93815.88;5092146;28;20028;-52
2022/05/16 00:35:07;;;;;;;8.90;6.35;;;;;;;10.18;73.03;93825.31;5091952;28;20039;-49
2022/05/16 00:37:32;;;;;;;7.32;6.28;;;;;;;10.31;72.87;93823.22;5092002;28;20047;-49
2022/05/16 00:39:58;;;;;;;6.85;6.25;;;;;;;10.34;71.74;93824.16;5091932;28;20501;-51
2022/05/16 00:42:23;;;;;;;8.15;6.78;;;;;;;10.17;73.14;93823.81;5091811;28;20025;-51
2022/05/16 00:44:48;;;;;;;7.10;6.15;;;;;;;10.39;72.76;93820.53;5091557;28;20020;-51
2022/05/16 00:47:14;;;;;;;7.63;6.50;;;;;;;10.36;72.07;93824.34;5091491;28;20508;-50
2022/05/16 00:49:44;;;;;;;8.77;6.03;;;;;;;10.31;71.58;93823.22;5090284;28;20047;-48
2022/05/16 00:52:13;;;;;;;6.95;6.25;;;;;;;10.22;71.79;93831.94;5091759;28;20050;-51
2022/05/16 00:54:50;;;;;;;6.30;5.60;;;;;;;10.01;72.13;93831.16;5091403;28;20016;-52
2022/05/16 00:57:19;;;;;;;7.90;5.82;;;;;;;9.86;72.20;93825.47;5091645;28;20033;-52
2022/05/16 01:00:03;;;;;;;6.70;5.57;;;;;;;9.68;72.89;93827.13;5111363;28;20051;-51
2022/05/16 01:05:15;;;;;;;8.48;5.82;;;;;;;9.84;73.08;93823.25;5111919;28;20453;-51
2022/05/16 01:07:43;;;;;;;7.55;5.20;;;;;;;9.81;72.58;93821.56;5111468;28;20024;-52
2022/05/16 01:10:11;;;;;;;10.15;5.72;;;;;;;9.71;72.52;93820.53;5111512;28;20051;-50
2022/05/16 01:12:39;;;;;;;8.10;5.25;;;;;;;9.82;72.22;93814.03;5110900;28;20015;-49
2022/05/16 01:15:07;;;;;;;6.13;5.40;;;;;;;9.90;71.80;93825.88;5111376;28;20076;-50
2022/05/16 01:17:33;;;;;;;9.63;5.15;;;;;;;9.88;71.43;93817.41;5101697;28;20458;-48
2022/05/16 01:19:58;;;;;;;10.30;6.07;;;;;;;9.71;73.25;93826.06;5090849;28;20035;-49
2022/05/16 01:22:30;;;;;;;7.22;6.53;;;;;;;9.65;73.26;93819.19;5110047;28;20023;-50
2022/05/16 01:24:59;;;;;;;7.18;5.88;;;;;;;9.72;72.57;93818.53;5111410;28;20031;-50
2022/05/16 01:27:25;;;;;;;7.47;5.88;;;;;;;9.67;72.71;93820.13;5111494;28;20019;-51
2022/05/16 01:29:50;;;;;;;6.57;5.60;;;;;;;9.53;73.48;93812.44;5111040;28;20035;-51
2022/05/16 01:32:18;;;;;;;6.95;6.25;;;;;;;9.58;72.43;93812.31;5111022;28;20019;-48
2022/05/16 01:34:43;;;;;;;7.22;6.50;;;;;;;9.37;73.27;93813.50;5111078;28;20031;-51
2022/05/16 01:37:09;;;;;;;7.82;6.38;;;;;;;9.11;74.54;93809.50;5111255;28;20027;-48
2022/05/16 01:39:34;;;;;;;8.75;6.72;;;;;;;9.09;74.75;93816.81;5111263;28;20492;-51
2022/05/16 01:42:00;;;;;;;7.10;6.40;;;;;;;9.31;74.33;93810.88;5111079;28;20028;-51
2022/05/16 01:44:25;;;;;;;7.55;5.60;;;;;;;9.16;73.88;93805.88;5110835;28;20404;-49
2022/05/16 01:46:51;;;;;;;7.57;5.78;;;;;;;9.15;74.20;93812.69;5110823;28;20023;-50
2022/05/16 01:49:16;;;;;;;8.25;6.20;;;;;;;9.14;73.13;93818.69;5111066;28;20027;-50
2022/05/16 01:51:42;;;;;;;8.40;5.78;;;;;;;9.16;72.90;93808.63;5111137;28;20496;-50
2022/05/16 01:54:09;;;;;;;10.18;7.43;;;;;;;9.32;74.05;93815.09;5110679;28;20466;-48
2022/05/16 01:56:35;;;;;;;13.75;7.78;;;;;;;9.44;73.70;93818.38;5111049;28;20435;-51
2022/05/16 01:59:03;;;;;;;12.40;7.50;;;;;;;9.52;74.79;93808.19;5096782;28;20020;-50
2022/05/16 02:01:28;;;;;;;12.30;9.10;;;;;;;9.47;74.82;93811.78;5090095;28;20074;-51
2022/05/16 02:03:54;;;;;;;32.45;10.32;;;;;;;9.24;76.34;93783.97;5090309;28;20055;-50
2022/05/16 02:06:20;;;;;;;12.10;8.93;;;;;;;9.42;75.35;93801.63;5090281;28;20034;-51
2022/05/16 02:08:47;;;;;;;11.68;8.50;;;;;;;9.39;74.85;93797.91;5090242;28;20030;-51
2022/05/16 02:11:14;;;;;;;23.60;9.18;;;;;;;9.42;75.18;93807.88;5090543;28;20020;-52
2022/05/16 02:13:41;;;;;;;18.52;8.20;;;;;;;9.43;75.09;93809.38;5098626;28;20039;-52
2022/05/16 02:16:08;;;;;;;12.02;8.55;;;;;;;9.11;74.98;93814.28;5110774;28;20023;-49
2022/05/16 02:18:33;;;;;;;9.15;7.45;;;;;;;9.00;75.58;93812.47;5110835;28;20024;-50
2022/05/16 02:26:27;;;;;;;19.42;9.70;;;;;;;8.91;77.31;93818.41;5114941;28;20053;-51
2022/05/16 02:28:53;;;;;;;11.05;7.72;;;;;;;9.07;76.82;93822.84;5114979;28;20023;-51
2022/05/16 02:31:20;;;;;;;14.43;8.93;;;;;;;9.05;76.35;93819.16;5114466;28;20473;-48
2022/05/16 02:33:48;;;;;;;13.27;9.30;;;;;;;8.78;76.04;93782.59;5114860;28;20425;-50
2022/05/16 02:36:14;;;;;;;10.32;8.25;;;;;;;8.79;76.00;93813.63;5114787;28;20027;-51
2022/05/16 02:38:40;;;;;;;10.82;7.40;;;;;;;8.80;75.46;93815.84;5114711;28;20024;-51
2022/05/16 02:41:06;;;;;;;10.52;8.20;;;;;;;8.65;75.34;93825.88;5114545;27;20439;-50
2022/05/16 02:43:31;;;;;;;8.70;7.22;;;;;;;8.69;74.73;93827.06;5114651;28;20028;-48
2022/05/16 02:45:57;;;;;;;10.93;6.85;;;;;;;8.56;75.82;93827.03;5114253;28;20020;-52
2022/05/16 02:48:22;;;;;;;10.13;7.95;;;;;;;8.79;75.48;93827.41;5114241;28;20034;-50
2022/05/16 02:50:48;;;;;;;9.73;8.13;;;;;;;8.50;75.34;93825.63;5114469;27;20057;-50
2022/05/16 02:53:13;;;;;;;11.10;8.23;;;;;;;8.40;76.40;93826.03;5114439;28;20023;-50
2022/05/16 02:55:38;;;;;;;10.80;9.02;;;;;;;8.69;76.69;93835.31;5114380;28;20405;-51
2022/05/16 02:58:07;;;;;;;20.15;9.43;;;;;;;8.71;75.72;93815.50;5108135;28;20020;-51
2022/05/16 03:00:33;;;;;;;12.50;8.57;;;;;;;8.85;75.50;93822.53;5093378;28;20100;-50
2022/05/16 03:02:58;;;;;;;10.07;7.63;;;;;;;8.49;76.17;93829.69;5093553;28;20024;-49
2022/05/16 03:05:23;;;;;;;11.55;8.18;;;;;;;8.73;75.48;93830.22;5093820;28;20020;-49
2022/05/16 03:07:49;;;;;;;10.88;8.57;;;;;;;8.79;74.56;93833.63;5093755;28;20024;-48
2022/05/16 03:10:15;;;;;;;12.15;9.00;;;;;;;8.70;74.99;93836.06;5104807;28;20558;-50
2022/05/16 03:12:43;;;;;;;13.45;10.82;;;;;;;8.38;76.37;93836.09;5114035;28;20016;-50
2022/05/16 03:15:09;;;;;;;15.32;9.52;;;;;;;8.66;76.17;93836.38;5113660;28;20432;-50
2022/05/16 03:17:35;;;;;;;10.32;8.60;;;;;;;8.65;75.27;93845.16;5113641;28;20560;-49
2022/05/16 03:20:00;;;;;;;9.90;8.38;;;;;;;8.44;74.79;93842.25;5113823;28;20019;-52
2022/05/16 03:22:26;;;;;;;11.55;9.43;;;;;;;8.29;74.81;93847.50;5113233;28;20020;-50
2022/05/16 03:24:51;;;;;;;10.68;8.35;;;;;;;8.05;75.13;93853.84;5113485;27;20103;-50
2022/05/16 03:27:17;;;;;;;11.00;8.48;;;;;;;8.14;75.58;93847.22;5113421;28;20077;-52
2022/05/16 03:29:42;;;;;;;12.60;8.82;;;;;;;8.09;75.88;93857.03;5113427;28;20015;-51
2022/05/16 03:32:08;;;;;;;13.52;10.00;;;;;;;8.18;76.21;93850.41;5113657;28;20020;-47
2022/05/16 03:34:33;;;;;;;14.02;9.93;;;;;;;8.14;76.59;93844.47;5112944;27;20511;-50
2022/05/16 03:36:59;;;;;;;13.38;9.70;;;;;;;8.12;76.85;93844.97;5113454;28;20022;-49
2022/05/16 03:42:09;;;;;;;33.35;15.40;;;;;;;8.22;77.16;93850.84;5113167;28;20661;-52
2022/05/16 03:44:34;;;;;;;57.08;22.73;;;;;;;8.30;77.94;93844.22;5113454;28;20024;-52
2022/05/16 03:47:00;;;;;;;55.33;28.95;;;;;;;8.18;79.15;93851.16;5113394;28;20476;-49
2022/05/16 03:49:26;;;;;;;29.60;18.75;;;;;;;7.86;80.31;93849.63;5113370;28;20462;-50
2022/05/16 03:51:51;;;;;;;23.30;15.27;;;;;;;7.99;79.83;93844.91;5113364;28;20499;-50
2022/05/16 03:54:17;;;;;;;24.55;15.18;;;;;;;8.19;79.50;93840.88;5113242;28;20031;-50
2022/05/16 03:56:43;;;;;;;20.20;14.63;;;;;;;8.37;77.85;93829.84;5112938;28;20024;-51
2022/05/16 03:59:11;;;;;;;23.65;15.57;;;;;;;8.72;76.44;93845.28;5097460;28;20073;-52
2022/05/16 04:01:36;;;;;;;23.52;15.50;;;;;;;8.82;76.25;93851.09;5092616;28;20020;-49
2022/05/16 04:04:02;;;;;;;27.17;16.10;;;;;;;8.84;76.35;93851.31;5092692;28;20509;-52
2022/05/16 04:06:27;;;;;;;23.88;16.60;;;;;;;8.83;75.93;93847.09;5103399;28;20393;-52
2022/05/16 04:08:54;;;;;;;27.15;17.27;;;;;;;8.87;75.71;93851.03;5112678;28;20515;-51
2022/05/16 04:11:19;;;;;;;27.45;16.58;;;;;;;9.02;75.49;93856.00;5112926;28;20016;-51
2022/05/16 04:13:46;;;;;;;26.45;16.00;;;;;;;9.40;74.68;93856.53;5112956;28;20501;-50
2022/05/16 04:16:12;;;;;;;27.02;15.95;;;;;;;9.40;74.12;93865.53;5112526;28;20023;-51
2022/05/16 04:18:38;;;;;;;28.08;17.10;;;;;;;9.55;74.07;93857.47;5112453;28;20031;-49
2022/05/16 04:21:04;;;;;;;25.75;16.02;;;;;;;9.65;72.93;93836.47;5112022;28;20031;-51
2022/05/16 04:23:30;;;;;;;22.95;16.25;;;;;;;9.93;72.52;93866.19;5112718;28;20027;-50
2022/05/16 04:25:56;;;;;;;19.38;13.30;;;;;;;9.91;72.85;93846.69;5112663;28;20576;-51
2022/05/16 04:28:22;;;;;;;17.70;12.80;;;;;;;10.17;72.78;93868.69;5112615;28;20023;-51
2022/05/16 04:30:47;;;;;;;18.05;10.90;;;;;;;10.37;72.69;93862.44;5112243;28;20650;-51
2022/05/16 04:33:13;;;;;;;12.88;10.30;;;;;;;10.85;71.84;93865.84;5112488;28;20030;-53
2022/05/16 04:35:38;;;;;;;12.02;9.80;;;;;;;11.36;70.01;93873.03;5112126;28;20106;-51
2022/05/16 04:38:07;;;;;;;13.25;9.20;;;;;;;11.94;68.38;93871.66;5112426;28;20088;-50
2022/05/16 04:40:33;;;;;;;10.25;8.43;;;;;;;12.50;66.33;93865.94;5112348;28;20019;-53
2022/05/16 04:42:59;;;;;;;8.90;7.97;;;;;;;12.58;65.45;93874.25;5112251;28;20411;-49
2022/05/16 04:45:27;;;;;;;8.30;7.47;;;;;;;12.76;65.00;93873.91;5112271;28;20023;-49
2022/05/16 04:47:55;;;;;;;8.13;7.10;;;;;;;12.79;64.71;93877.59;5112203;28;20027;-51
2022/05/16 04:50:31;;;;;;;9.20;7.85;;;;;;;12.95;64.63;93876.31;5111872;28;20058;-51
2022/05/16 04:52:57;;;;;;;12.77;7.13;;;;;;;13.35;64.38;93871.72;5112190;27;20032;-52
2022/05/16 04:55:22;;;;;;;8.20;7.22;;;;;;;13.66;63.40;93872.41;5112020;28;20506;-50
2022/05/16 04:57:48;;;;;;;7.47;6.78;;;;;;;13.79;63.43;93882.53;5108108;28;20049;-51
2022/05/16 05:00:15;;;;;;;6.43;5.68;;;;;;;14.00;63.25;93877.47;5091253;28;20096;-52
2022/05/16 05:02:40;;;;;;;5.10;4.60;;;;;;;14.18;62.96;93874.25;5101738;28;20531;-49
2022/05/16 05:05:07;;;;;;;5.28;4.78;;;;;;;14.23;63.08;93875.31;5111646;27;20050;-50
2022/05/16 05:07:33;;;;;;;9.80;6.38;;;;;;;14.28;63.47;93885.50;5111815;28;20055;-51
2022/05/16 05:15:26;;;;;;;6.90;6.20;;;;;;;14.67;63.31;93889.56;5111728;28;20092;-48
2022/05/16 05:17:52;;;;;;;7.75;6.60;;;;;;;15.37;62.08;93890.00;5111636;28;20016;-52
2022/05/16 05:20:18;;;;;;;39.65;8.98;;;;;;;15.92;60.63;93881.31;5111265;28;20020;-51
2022/05/16 05:22:45;;;;;;;14.05;7.32;;;;;;;16.83;58.91;93897.66;5111580;28;20024;-49
2022/05/16 05:25:15;;;;;;;18.95;8.85;;;;;;;17.71;55.84;93894.63;5111459;28;20016;-50
2022/05/16 05:27:41;;;;;;;9.82;8.35;;;;;;;18.41;54.15;93891.44;5111132;28;20047;-53
2022/05/16 05:30:12;;;;;;;7.95;7.15;;;;;;;18.87;53.49;93885.63;5111414;28;20098;-51
2022/05/16 05:32:37;;;;;;;8.27;5.65;;;;;;;19.45;52.46;93881.31;5111131;28;20011;-51
2022/05/16 05:35:04;;;;;;;5.55;4.82;;;;;;;19.86;51.57;93892.47;5111361;28;20026;-51
2022/05/16 05:37:31;;;;;;;5.65;5.20;;;;;;;19.90;51.46;93899.06;5110958;28;20072;-49
2022/05/16 05:40:00;;;;;;;5.47;4.97;;;;;;;20.05;51.43;93897.94;5111039;28;20034;-51
2022/05/16 05:42:26;;;;;;;10.00;5.50;;;;;;;20.24;51.43;93906.22;5111220;28;20397;-52
2022/05/16 05:44:52;;;;;;;8.57;5.32;;;;;;;20.13;52.10;93902.00;5111233;28;20043;-51
2022/05/16 05:47:17;;;;;;;10.63;5.93;;;;;;;19.95;52.50;93902.84;5110958;28;20428;-51
2022/05/16 05:49:43;;;;;;;6.70;5.35;;;;;;;19.84;53.88;93897.94;5110854;28;20015;-52
2022/05/16 05:52:09;;;;;;;5.90;5.20;;;;;;;20.06;53.88;93894.53;5111151;28;20023;-51
2022/05/16 05:54:34;;;;;;;7.88;5.82;;;;;;;20.57;52.80;93895.78;5110822;28;20463;-50
2022/05/16 05:57:02;;;;;;;5.53;5.03;;;;;;;20.63;51.10;93901.03;5110989;28;20055;-49
2022/05/16 05:59:27;;;;;;;5.05;4.65;;;;;;;20.57;52.02;93895.03;5107527;28;20461;-48
2022/05/16 06:01:53;;;;;;;9.65;6.57;;;;;;;20.56;52.15;93899.91;5110676;28;20022;-49
2022/05/16 06:04:18;;;;;;;6.22;5.57;;;;;;;20.76;51.04;93898.41;5110950;28;20027;-48
2022/05/16 06:06:46;;;;;;;11.90;5.07;;;;;;;20.87;51.01;93903.31;5110952;28;20480;-49
2022/05/16 06:09:11;;;;;;;7.35;5.05;;;;;;;20.83;52.09;93902.31;5110845;28;20027;-49
2022/05/16 06:11:37;;;;;;;14.73;6.38;;;;;;;20.63;53.94;93907.38;5110925;28;20031;-49
2022/05/16 06:14:02;;;;;;;7.70;5.38;;;;;;;20.64;53.81;93896.91;5108987;28;20043;-51
2022/05/16 06:16:28;;;;;;;6.85;5.38;;;;;;;20.92;53.34;93899.41;5110887;28;20487;-48
2022/05/16 06:18:53;;;;;;;5.60;5.05;;;;;;;21.23;52.25;93895.69;5110826;28;20024;-51
2022/05/16 06:21:19;;;;;;;7.15;5.50;;;;;;;21.52;51.77;93888.41;5110342;28;20072;-50
2022/05/16 06:23:44;;;;;;;6.40;5.80;;;;;;;21.43;51.55;93885.72;5110552;28;20047;-50
2022/05/16 06:26:10;;;;;;;7.53;5.80;;;;;;;21.74;51.35;93895.34;5110688;28;20051;-49
2022/05/16 06:28:38;;;;;;;7.05;5.30;;;;;;;21.68;50.65;93897.81;5110799;28;20076;-49
2022/05/16 06:31:04;;;;;;;8.02;4.82;;;;;;;21.77;49.76;93902.56;5110709;28;20022;-52
2022/05/16 06:33:30;;;;;;;6.55;5.85;;;;;;;22.07;50.12;93900.84;5110755;28;20408;-52
2022/05/16 06:35:56;;;;;;;6.63;5.22;;;;;;;22.16;48.56;93897.16;5110723;28;20032;-49
2022/05/16 06:38:29;;;;;;;8.60;5.28;;;;;;;22.19;49.08;93898.75;5110646;28;20026;-51
2022/05/16 06:40:55;;;;;;;5.97;5.30;;;;;;;22.77;47.30;93895.75;5110723;28;20466;-49
2022/05/16 06:43:22;;;;;;;7.32;4.82;;;;;;;23.02;46.84;93895.03;5110505;28;20023;-48
2022/05/16 06:45:49;;;;;;;5.88;5.13;;;;;;;23.73;44.93;93894.66;5110669;28;20029;-48
2022/05/16 06:48:15;;;;;;;4.68;4.28;;;;;;;24.73;43.34;93893.41;5110531;28;20023;-50
2022/05/16 06:50:41;;;;;;;5.28;4.70;;;;;;;25.62;41.56;93894.78;5110528;28;20089;-49
2022/05/16 06:53:11;;;;;;;4.95;4.25;;;;;;;26.24;39.88;93883.44;5110557;28;20042;-50
2022/05/16 06:55:37;;;;;;;4.15;3.85;;;;;;;26.52;38.64;93892.41;5095740;28;20053;-49
2022/05/16 06:58:02;;;;;;;4.72;4.32;;;;;;;26.87;38.62;93897.41;5095864;28;20024;-49
2022/05/16 07:00:27;;;;;;;5.90;4.65;;;;;;;26.02;38.92;93890.94;5110062;28;20047;-50
2022/05/16 07:02:53;;;;;;;6.32;4.57;;;;;;;26.09;39.08;93898.38;5110346;28;20024;-48
2022/05/16 07:05:18;;;;;;;4.65;4.20;;;;;;;26.66;37.90;93898.63;5110412;28;20022;-49
2022/05/16 07:07:44;;;;;;;4.80;4.32;;;;;;;27.29;38.00;93881.34;5110378;28;20480;-52
2022/05/16 07:10:10;;;;;;;6.20;4.10;;;;;;;27.79;36.80;93892.53;5111195;28;20145;-51
2022/05/16 07:12:36;;;;;;;5.78;4.22;;;;;;;28.32;35.50;93875.31;5114098;28;20054;-51
2022/05/16 07:15:27;;;;;;;4.53;4.13;;;;;;;29.41;33.99;93881.75;5113980;28;20084;-51
2022/05/16 07:17:52;;;;;;;4.47;4.07;;;;;;;30.32;32.61;93873.75;5113646;28;20035;-50
2022/05/16 07:20:18;;;;;;;13.02;4.45;;;;;;;31.12;31.48;93880.81;5113259;28;20031;-51
2022/05/16 07:22:45;;;;;;;4.03;3.60;;;;;;;31.41;29.25;93877.28;5113841;27;20023;-51
2022/05/16 07:25:16;;;;;;;6.32;3.90;;;;;;;31.34;29.14;93880.63;5113439;28;20407;-49
2022/05/16 07:27:57;;;;;;;3.58;3.28;;;;;;;32.22;28.21;93879.03;5113516;28;20480;-49
2022/05/16 07:30:43;;;;;;;7.05;4.30;;;;;;;33.02;28.62;93876.25;5113413;28;20110;-52
2022/05/16 07:33:08;;;;;;;5.30;3.63;;;;;;;33.89;25.59;93869.72;5113156;28;20035;-49
2022/05/16 07:35:35;;;;;;;4.78;3.30;;;;;;;33.41;25.48;93864.72;5113385;28;20081;-52
2022/05/16 07:38:01;;;;;;;3.92;3.40;;;;;;;34.04;25.69;93868.50;5113536;28;20027;-47
2022/05/16 07:40:29;;;;;;;5.10;3.28;;;;;;;34.73;24.77;93867.16;5113297;28;20034;-52
2022/05/16 07:42:54;;;;;;;22.58;5.05;;;;;;;35.32;25.35;93877.06;5113470;28;20451;-49
2022/05/16 07:45:21;;;;;;;14.43;3.80;;;;;;;35.65;23.43;93876.59;5113355;28;20028;-52
2022/05/16 07:47:47;;;;;;;3.88;3.38;;;;;;;36.14;22.59;93874.75;5113124;28;20676;-48
2022/05/16 07:50:13;;;;;;;9.95;2.97;;;;;;;36.50;21.41;93871.31;5112666;28;20034;-49
2022/05/16 07:52:40;;;;;;;8.20;2.20;;;;;;;36.79;20.56;93872.84;5092676;28;20020;-49
2022/05/16 07:55:06;;;;;;;9.52;2.60;;;;;;;37.08;18.46;93864.97;5091736;28;20114;-49
2022/05/16 07:57:33;;;;;;;4.47;2.92;;;;;;;37.12;19.33;93871.44;5094341;28;20020;-51
2022/05/16 07:59:58;;;;;;;2.80;2.28;;;;;;;37.23;18.29;93864.25;5112763;28;20134;-51
2022/05/16 08:02:23;;;;;;;2.95;2.10;;;;;;;37.48;18.11;93867.16;5112743;28;20023;-50
2022/05/16 08:04:49;;;;;;;2.88;2.30;;;;;;;37.55;18.61;93865.72;5113092;28;20020;-49
2022/05/16 08:07:14;;;;;;;3.63;2.22;;;;;;;36.84;18.24;93873.56;5112713;28;20492;-49
2022/05/16 08:12:29;;;;;;;2.20;1.80;;;;;;;36.53;19.86;93874.91;5111932;28;20439;-52
2022/05/16 08:14:55;;;;;;;4.90;2.03;;;;;;;36.68;18.07;93874.25;5112994;28;20102;-45
2022/05/16 08:17:21;;;;;;;2.95;2.00;;;;;;;37.29;19.55;93871.47;5112511;28;20532;-49
2022/05/16 08:19:47;;;;;;;4.20;2.00;;;;;;;37.46;18.39;93870.78;5112841;28;20024;-48
2022/05/16 08:22:12;;;;;;;4.40;1.77;;;;;;;37.83;18.23;93880.13;5111976;28;20045;-48
2022/05/16 08:24:38;;;;;;;2.53;1.90;;;;;;;37.35;17.63;93877.25;5112758;28;20408;-48
2022/05/16 08:27:04;;;;;;;2.72;2.15;;;;;;;37.81;15.89;93868.59;5112634;28;20099;-50
2022/05/16 08:29:30;;;;;;;2.95;1.70;;;;;;;37.74;17.54;93852.72;5112352;27;20481;-47
2022/05/16 08:31:56;;;;;;;4.07;2.15;;;;;;;37.35;17.23;93857.09;5112274;28;20020;-46
2022/05/16 08:34:22;;;;;;;3.33;2.13;;;;;;;37.63;17.69;93866.44;5112496;28;20389;-47
2022/05/16 08:42:16;;;;;;;2.47;1.73;;;;;;;37.64;17.65;93852.75;5112206;28;20108;-47
2022/05/16 08:44:46;;;;;;;5.18;2.13;;;;;;;38.04;17.22;93857.72;5112244;28;20504;-50
2022/05/16 08:47:29;;;;;;;3.78;2.28;;;;;;;38.55;16.66;93859.69;5104191;28;20028;-50
2022/05/16 08:49:57;;;;;;;2.33;1.83;;;;;;;38.79;16.94;93858.84;5091511;28;20053;-51
2022/05/16 08:52:34;;;;;;;3.17;1.90;;;;;;;38.56;16.92;93866.91;5091470;28;20458;-47
2022/05/16 08:55:05;;;;;;;4.30;1.98;;;;;;;38.64;16.91;93866.13;5091733;28;20028;-48
2022/05/16 08:57:34;;;;;;;2.63;2.40;;;;;;;38.79;17.15;93866.81;5091859;28;20100;-49
2022/05/16 09:00:10;;;;;;;3.95;2.20;;;;;;;38.70;16.21;93848.84;5110559;28;20044;-49
2022/05/16 09:02:39;;;;;;;3.08;1.92;;;;;;;38.56;15.94;93846.72;5110419;28;20035;-48
2022/05/16 09:05:28;;;;;;;3.90;1.95;;;;;;;38.94;17.12;93850.84;5110443;28;20504;-46
2022/05/16 09:07:56;;;;;;;3.75;2.20;;;;;;;38.56;16.45;93855.38;5110683;28;20047;-50
2022/05/16 09:10:25;;;;;;;6.55;3.22;;;;;;;38.19;17.19;93851.19;5111853;28;20493;-48
2022/05/16 09:13:09;;;;;;;4.60;1.88;;;;;;;38.69;17.78;93847.38;5110544;28;20454;-50
2022/05/16 09:15:34;;;;;;;2.70;2.00;;;;;;;39.01;17.11;93843.56;5111670;28;20033;-47
2022/05/16 09:18:15;;;;;;;4.68;1.75;;;;;;;39.60;15.80;93838.06;5111673;28;20019;-49
2022/05/16 09:21:12;;;;;;;3.90;2.05;;;;;;;39.39;15.07;93832.47;5111150;28;20023;-45
2022/05/16 09:24:01;;;;;;;3.45;1.75;;;;;;;39.11;14.37;93847.13;5104888;28;20443;-48
2022/05/16 09:26:51;;;;;;;2.70;1.90;;;;;;;39.39;14.40;93828.84;5110412;28;20024;-47
2022/05/16 09:29:33;;;;;;;2.63;1.95;;;;;;;38.39;14.72;93839.59;5111495;28;20603;-48
2022/05/16 09:32:06;;;;;;;4.13;1.80;;;;;;;38.78;16.36;93839.38;5109859;28;20024;-47
2022/05/16 09:34:32;;;;;;;2.63;1.92;;;;;;;39.15;16.59;93832.66;5109399;28;20071;-51
2022/05/16 09:36:58;;;;;;;5.38;2.17;;;;;;;39.03;16.96;93832.72;5111051;28;20027;-47
2022/05/16 09:39:26;;;;;;;8.05;1.88;;;;;;;38.68;16.17;93829.34;5110972;28;20016;-46
2022/05/16 09:42:03;;;;;;;2.72;2.05;;;;;;;39.22;16.12;93825.38;5110942;28;20022;-49
2022/05/16 09:44:50;;;;;;;5.38;1.88;;;;;;;38.90;15.01;93822.69;5095462;28;20049;-49
2022/05/16 09:47:28;;;;;;;2.92;1.85;;;;;;;38.83;14.95;93824.22;5090947;28;20035;-47
2022/05/16 09:50:02;;;;;;;3.50;1.98;;;;;;;38.51;16.40;93816.44;5090834;28;20035;-47
2022/05/16 09:52:29;;;;;;;3.10;2.20;;;;;;;38.90;14.99;93810.44;5090857;28;20409;-51
2022/05/16 09:55:07;;;;;;;4.03;2.30;;;;;;;37.36;15.90;93809.56;5090776;28;20020;-48
2022/05/16 09:57:40;;;;;;;;;;;;;;;37.06;15.48;93805.22;5092697;28;20032;-52
2022/05/16 10:00:32;;;;;;;5.40;2.28;;;;;;;37.10;16.86;93805.22;5110802;28;19920;-51
2022/05/16 10:03:14;;;;;;;3.15;2.20;;;;;;;37.70;18.15;93795.09;5110596;28;20035;-49
2022/05/16 10:05:47;;;;;;;7.63;2.67;;;;;;;37.80;16.85;93797.97;5110974;28;20066;-49
2022/05/16 10:08:17;;;;;;;2.20;2.00;;;;;;;37.98;17.36;93792.16;5110591;28;20496;-51
2022/05/16 10:10:45;;;;;;;3.20;2.40;;;;;;;38.56;16.85;93786.09;5109557;28;20034;-52
2022/05/16 10:13:11;;;;;;;;;;;;;;;38.71;17.18;93788.91;5109463;28;20039;-49
2022/05/16 10:15:37;;;;;;;2.90;2.33;;;;;;;39.29;15.53;93779.81;5109030;28;19918;-48
2022/05/16 10:18:05;;;;;;;3.70;2.30;;;;;;;38.56;14.75;93788.28;5110160;28;20099;-49
2022/05/16 10:20:39;;;;;;;3.63;2.17;;;;;;;37.62;16.90;93784.28;5108531;28;20023;-50
2022/05/16 10:23:12;;;;;;;2.08;1.83;;;;;;;36.78;17.79;93779.28;5109338;28;20552;-50
2022/05/16 10:25:46;;;;;;;4.35;2.47;;;;;;;36.69;17.07;93777.84;5109706;28;20102;-50
2022/05/16 10:28:16;;;;;;;6.80;2.25;;;;;;;37.17;16.47;93772.13;5109244;28;20058;-48
2022/05/16 10:33:29;;;;;;;3.70;1.98;;;;;;;37.50;16.55;93754.81;5110776;28;20519;-49
2022/05/16 10:36:18;;;;;;;3.05;1.90;;;;;;;36.95;16.91;93766.38;5109530;28;20024;-50
2022/05/16 10:39:07;;;;;;;9.45;2.60;;;;;;;37.74;15.99;93760.50;5110051;28;20039;-52
2022/05/16 10:41:56;;;;;;;2.35;2.10;;;;;;;37.36;16.57;93764.19;5090230;28;20390;-50
2022/05/16 10:44:32;;;;;;;2.20;2.00;;;;;;;36.64;15.94;93752.66;5091579;28;20104;-50
2022/05/16 10:47:00;;;;;;;7.25;2.28;;;;;;;35.77;17.13;93753.13;5094273;28;20020;-48
2022/05/16 10:49:40;;;;;;;2.90;2.53;;;;;;;36.08;18.21;93767.63;5093868;28;20032;-48
2022/05/16 10:52:29;;;;;;;4.90;2.30;;;;;;;34.92;17.78;93765.47;5109653;28;20059;-49
2022/05/16 10:54:54;;;;;;;3.17;2.53;;;;;;;33.58;20.41;93757.63;5093823;28;20089;-51
2022/05/16 10:57:58;;;;;;;3.40;3.10;;;;;;;32.09;22.21;93745.94;5094002;28;20027;-50
2022/05/16 11:00:56;;;;;;;2.70;2.50;;;;;;;31.11;23.28;93751.03;5093444;28;20505;-51
2022/05/16 11:03:40;;;;;;;3.58;2.80;;;;;;;30.14;25.10;93752.91;5075034;28;20433;-51
2022/05/16 11:06:46;;;;;;;3.75;2.53;;;;;;;29.15;25.47;93744.41;5093832;28;20020;-50
2022/05/16 11:09:33;;;;;;;3.85;3.22;;;;;;;28.66;27.33;93744.31;5087008;28;20171;-53
2022/05/16 11:12:14;;;;;;;3.78;3.20;;;;;;;28.17;28.77;93742.75;5093809;28;20032;-51
2022/05/16 11:14:51;;;;;;;4.65;3.33;;;;;;;27.86;28.56;93745.91;5093365;28;20493;-51
2022/05/16 11:17:41;;;;;;;4.28;3.25;;;;;;;27.54;31.04;93739.84;5093387;28;20024;-49
2022/05/16 11:20:25;;;;;;;4.30;3.75;;;;;;;27.29;31.92;93737.47;5092428;28;20047;-48
2022/05/16 11:22:58;;;;;;;5.43;3.72;;;;;;;27.27;31.10;93736.66;5109010;28;20039;-49
2022/05/16 11:25:35;;;;;;;5.20;3.50;;;;;;;27.23;30.99;93742.91;5092217;28;20110;-51
2022/05/16 11:28:13;;;;;;;5.13;3.05;;;;;;;27.16;30.63;93737.69;5093128;28;20066;-52
2022/05/16 11:30:56;;;;;;;3.45;2.70;;;;;;;27.18;29.92;93738.47;5091991;28;20031;-49
2022/05/16 11:33:46;;;;;;;4.32;3.33;;;;;;;27.17;31.37;93739.88;5109143;28;20537;-48
2022/05/16 11:36:16;;;;;;;22.88;4.53;;;;;;;27.02;31.71;93732.94;5101757;28;20030;-51
2022/05/16 11:39:02;;;;;;;19.50;3.35;;;;;;;26.74;32.72;93733.97;5113859;28;20066;-52
2022/05/16 11:41:48;;;;;;;3.25;3.05;;;;;;;26.86;32.16;93725.94;5112084;28;20103;-51
2022/05/16 11:44:24;;;;;;;6.65;3.65;;;;;;;26.94;30.61;93729.78;5113155;28;20092;-49
2022/05/16 11:47:00;;;;;;;28.85;5.43;;;;;;;26.82;30.84;93706.69;5112079;28;20055;-48
2022/05/16 11:49:43;;;;;;;10.50;4.65;;;;;;;26.94;30.34;93723.41;5111977;28;20532;-50
2022/05/16 11:52:29;;;;;;;7.13;3.92;;;;;;;26.93;30.90;93717.03;5111982;28;20073;-50
2022/05/16 12:01:31;;;;;;;4.38;3.10;;;;;;;26.53;33.56;93711.91;5091540;28;20055;-51
2022/05/16 12:04:11;;;;;;;4.25;2.55;;;;;;;26.50;28.21;93707.50;5081663;28;20178;-52
2022/05/16 12:06:45;;;;;;;3.20;2.90;;;;;;;26.52;29.27;93699.84;5092776;28;20024;-52
2022/05/16 12:09:17;;;;;;;6.38;2.95;;;;;;;26.44;28.35;93696.69;5092361;28;20055;-48
2022/05/16 12:12:08;;;;;;;2.83;2.60;;;;;;;26.24;30.64;93690.97;5092388;28;20020;-51
2022/05/16 12:14:39;;;;;;;3.25;2.95;;;;;;;26.31;30.81;93689.09;5091112;28;20501;-50
2022/05/16 12:17:07;;;;;;;6.60;3.72;;;;;;;26.10;34.94;93687.56;5092230;28;20028;-52
2022/05/16 12:19:41;;;;;;;5.05;3.28;;;;;;;26.42;32.84;93673.97;5092143;28;20085;-48